sensor_id;sensor_type;location;lat;lon;timestamp;temperature;humidity
21216;DHT22;10765;50.954;5.322;2023-03-03T00:01:17;0.90;13.50
21216;DHT22;10765;50.954;5.322;2023-03-03T00:03:44;1.00;99.90
21216;DHT22;10765;50.954;5.322;2023-03-03T00:06:13;1.00;99.90
21216;DHT22;10765;50.954;5.322;2023-03-03T00:08:40;1.00;99.90
21216;DHT22;10765;50.954;5.322;2023-03-03T00:11:07;0.90;99.90
21216;DHT22;10765;50.954;5.322;2023-03-03T00:13:42;0.90;1.00
21216;DHT22;10765;50.954;5.322;2023-03-03T00:16:14;0.90;1.00
21216;DHT22;10765;50.954;5.322;2023-03-03T00:18:43;0.90;99.90
21216;DHT22;10765;50.954;5.322;2023-03-03T00:21:26;0.90;99.90
21216;DHT22;10765;50.954;5.322;2023-03-03T00:23:54;0.90;1.00
21216;DHT22;10765;50.954;5.322;2023-03-03T00:26:28;0.70;99.90
21216;DHT22;10765;50.954;5.322;2023-03-03T00:28:56;0.70;99.90
21216;DHT22;10765;50.954;5.322;2023-03-03T00:31:29;0.60;99.90
21216;DHT22;10765;50.954;5.322;2023-03-03T00:34:02;0.60;1.00
21216;DHT22;10765;50.954;5.322;2023-03-03T00:36:39;0.70;1.00
21216;DHT22;10765;50.954;5.322;2023-03-03T00:39:21;0.70;1.00
21216;DHT22;10765;50.954;5.322;2023-03-03T00:41:51;0.60;99.90
21216;DHT22;10765;50.954;5.322;2023-03-03T00:44:38;0.70;99.90
21216;DHT22;10765;50.954;5.322;2023-03-03T00:47:25;0.70;99.90
21216;DHT22;10765;50.954;5.322;2023-03-03T00:49:53;0.70;1.00
21216;DHT22;10765;50.954;5.322;2023-03-03T00:52:23;0.70;1.00
21216;DHT22;10765;50.954;5.322;2023-03-03T00:54:53;0.70;1.00
21216;DHT22;10765;50.954;5.322;2023-03-03T00:57:20;0.60;1.00
21216;DHT22;10765;50.954;5.322;2023-03-03T00:59:47;0.70;1.00
21216;DHT22;10765;50.954;5.322;2023-03-03T01:02:14;0.60;1.00
21216;DHT22;10765;50.954;5.322;2023-03-03T01:04:42;0.60;99.90
21216;DHT22;10765;50.954;5.322;2023-03-03T01:07:10;0.60;1.00
21216;DHT22;10765;50.954;5.322;2023-03-03T01:09:38;0.50;99.90
21216;DHT22;10765;50.954;5.322;2023-03-03T01:12:05;0.40;1.00
21216;DHT22;10765;50.954;5.322;2023-03-03T01:14:32;0.50;1.00
21216;DHT22;10765;50.954;5.322;2023-03-03T01:16:59;0.40;99.90
21216;DHT22;10765;50.954;5.322;2023-03-03T01:19:26;0.30;99.90
21216;DHT22;10765;50.954;5.322;2023-03-03T01:21:53;0.30;99.90
21216;DHT22;10765;50.954;5.322;2023-03-03T01:24:20;0.20;99.90
21216;DHT22;10765;50.954;5.322;2023-03-03T01:26:49;0.30;99.90
21216;DHT22;10765;50.954;5.322;2023-03-03T01:29:15;0.40;99.90
21216;DHT22;10765;50.954;5.322;2023-03-03T01:31:42;0.20;1.00
21216;DHT22;10765;50.954;5.322;2023-03-03T01:34:09;0.20;99.90
21216;DHT22;10765;50.954;5.322;2023-03-03T01:36:36;0.20;1.00
21216;DHT22;10765;50.954;5.322;2023-03-03T01:39:03;0.30;1.00
21216;DHT22;10765;50.954;5.322;2023-03-03T01:41:31;0.50;1.00
21216;DHT22;10765;50.954;5.322;2023-03-03T01:43:59;0.70;1.00
21216;DHT22;10765;50.954;5.322;2023-03-03T01:46:47;0.90;1.00
21216;DHT22;10765;50.954;5.322;2023-03-03T01:49:18;1.00;99.90
21216;DHT22;10765;50.954;5.322;2023-03-03T01:51:51;1.20;99.90
21216;DHT22;10765;50.954;5.322;2023-03-03T01:54:23;1.30;1.00
21216;DHT22;10765;50.954;5.322;2023-03-03T01:56:53;1.30;99.90
21216;DHT22;10765;50.954;5.322;2023-03-03T01:59:25;1.30;1.00
21216;DHT22;10765;50.954;5.322;2023-03-03T02:01:54;1.10;99.90
21216;DHT22;10765;50.954;5.322;2023-03-03T02:04:21;1.00;99.90
21216;DHT22;10765;50.954;5.322;2023-03-03T02:06:51;1.00;99.90
21216;DHT22;10765;50.954;5.322;2023-03-03T02:09:26;1.20;99.90
21216;DHT22;10765;50.954;5.322;2023-03-03T02:11:58;1.10;1.00
21216;DHT22;10765;50.954;5.322;2023-03-03T02:14:27;1.10;99.90
21216;DHT22;10765;50.954;5.322;2023-03-03T02:16:54;1.10;99.90
21216;DHT22;10765;50.954;5.322;2023-03-03T02:19:25;1.00;1.00
21216;DHT22;10765;50.954;5.322;2023-03-03T02:21:54;1.00;1.00
21216;DHT22;10765;50.954;5.322;2023-03-03T02:24:25;0.90;1.00
21216;DHT22;10765;50.954;5.322;2023-03-03T02:26:54;0.90;1.00
21216;DHT22;10765;50.954;5.322;2023-03-03T02:29:22;1.00;1.00
21216;DHT22;10765;50.954;5.322;2023-03-03T02:31:49;0.80;1.00
21216;DHT22;10765;50.954;5.322;2023-03-03T02:34:15;0.80;99.90
21216;DHT22;10765;50.954;5.322;2023-03-03T02:36:42;0.90;1.00
21216;DHT22;10765;50.954;5.322;2023-03-03T02:39:14;1.00;99.90
21216;DHT22;10765;50.954;5.322;2023-03-03T02:41:47;0.90;1.00
21216;DHT22;10765;50.954;5.322;2023-03-03T02:44:17;0.90;99.90
21216;DHT22;10765;50.954;5.322;2023-03-03T02:46:46;0.90;99.90
21216;DHT22;10765;50.954;5.322;2023-03-03T02:49:14;1.10;99.90
21216;DHT22;10765;50.954;5.322;2023-03-03T02:51:42;1.20;1.00
21216;DHT22;10765;50.954;5.322;2023-03-03T02:54:10;1.00;1.00
21216;DHT22;10765;50.954;5.322;2023-03-03T02:56:37;1.00;1.00
21216;DHT22;10765;50.954;5.322;2023-03-03T02:59:05;0.90;99.90
21216;DHT22;10765;50.954;5.322;2023-03-03T03:01:34;0.90;1.00
21216;DHT22;10765;50.954;5.322;2023-03-03T03:04:03;0.90;99.90
21216;DHT22;10765;50.954;5.322;2023-03-03T03:06:32;1.10;1.00
21216;DHT22;10765;50.954;5.322;2023-03-03T03:08:58;0.90;1.00
21216;DHT22;10765;50.954;5.322;2023-03-03T03:11:25;0.90;99.90
21216;DHT22;10765;50.954;5.322;2023-03-03T03:13:52;0.70;1.00
21216;DHT22;10765;50.954;5.322;2023-03-03T03:16:19;0.70;99.90
21216;DHT22;10765;50.954;5.322;2023-03-03T03:18:48;0.60;1.00
21216;DHT22;10765;50.954;5.322;2023-03-03T03:21:16;0.60;1.00
21216;DHT22;10765;50.954;5.322;2023-03-03T03:23:43;0.60;1.00
21216;DHT22;10765;50.954;5.322;2023-03-03T03:26:10;0.60;1.00
21216;DHT22;10765;50.954;5.322;2023-03-03T03:28:37;0.70;1.00
21216;DHT22;10765;50.954;5.322;2023-03-03T03:31:05;0.70;99.90
21216;DHT22;10765;50.954;5.322;2023-03-03T03:33:33;0.70;1.00
21216;DHT22;10765;50.954;5.322;2023-03-03T03:36:01;0.70;99.90
21216;DHT22;10765;50.954;5.322;2023-03-03T03:38:29;0.70;1.00
21216;DHT22;10765;50.954;5.322;2023-03-03T03:40:57;0.60;1.00
21216;DHT22;10765;50.954;5.322;2023-03-03T03:43:24;0.60;99.90
21216;DHT22;10765;50.954;5.322;2023-03-03T03:45:51;0.70;1.00
21216;DHT22;10765;50.954;5.322;2023-03-03T03:48:18;0.70;99.90
21216;DHT22;10765;50.954;5.322;2023-03-03T03:50:46;0.60;99.90
21216;DHT22;10765;50.954;5.322;2023-03-03T03:53:14;0.60;99.90
21216;DHT22;10765;50.954;5.322;2023-03-03T03:55:41;0.80;99.90
21216;DHT22;10765;50.954;5.322;2023-03-03T03:58:11;0.70;99.90
21216;DHT22;10765;50.954;5.322;2023-03-03T04:00:39;0.70;99.90
21216;DHT22;10765;50.954;5.322;2023-03-03T04:03:06;0.60;99.90
21216;DHT22;10765;50.954;5.322;2023-03-03T04:05:33;0.50;99.90
21216;DHT22;10765;50.954;5.322;2023-03-03T04:08:00;0.40;34.60
21216;DHT22;10765;50.954;5.322;2023-03-03T04:10:28;0.50;1.00
21216;DHT22;10765;50.954;5.322;2023-03-03T04:12:56;0.50;99.90
21216;DHT22;10765;50.954;5.322;2023-03-03T04:15:23;0.40;1.00
21216;DHT22;10765;50.954;5.322;2023-03-03T04:17:50;0.40;1.00
21216;DHT22;10765;50.954;5.322;2023-03-03T04:20:17;0.40;1.00
21216;DHT22;10765;50.954;5.322;2023-03-03T04:22:44;0.50;1.00
21216;DHT22;10765;50.954;5.322;2023-03-03T04:25:14;0.50;99.90
21216;DHT22;10765;50.954;5.322;2023-03-03T04:27:43;0.70;1.00
21216;DHT22;10765;50.954;5.322;2023-03-03T04:30:11;0.80;99.90
21216;DHT22;10765;50.954;5.322;2023-03-03T04:32:38;0.70;1.00
21216;DHT22;10765;50.954;5.322;2023-03-03T04:35:06;0.50;99.90
21216;DHT22;10765;50.954;5.322;2023-03-03T04:37:34;0.50;99.90
21216;DHT22;10765;50.954;5.322;2023-03-03T04:40:01;0.40;99.90
21216;DHT22;10765;50.954;5.322;2023-03-03T04:42:28;0.50;1.00
21216;DHT22;10765;50.954;5.322;2023-03-03T04:44:56;0.40;99.90
21216;DHT22;10765;50.954;5.322;2023-03-03T04:47:23;0.30;99.90
21216;DHT22;10765;50.954;5.322;2023-03-03T04:49:50;0.30;99.90
21216;DHT22;10765;50.954;5.322;2023-03-03T04:52:17;0.30;99.90
21216;DHT22;10765;50.954;5.322;2023-03-03T04:54:44;0.40;99.90
21216;DHT22;10765;50.954;5.322;2023-03-03T04:57:11;0.50;99.90
21216;DHT22;10765;50.954;5.322;2023-03-03T04:59:38;0.50;99.90
21216;DHT22;10765;50.954;5.322;2023-03-03T05:02:06;0.30;99.90
21216;DHT22;10765;50.954;5.322;2023-03-03T05:04:33;0.40;1.00
21216;DHT22;10765;50.954;5.322;2023-03-03T05:07:00;0.40;1.00
21216;DHT22;10765;50.954;5.322;2023-03-03T05:09:27;0.50;1.00
21216;DHT22;10765;50.954;5.322;2023-03-03T05:11:54;0.50;25.80
21216;DHT22;10765;50.954;5.322;2023-03-03T05:14:21;0.50;99.90
21216;DHT22;10765;50.954;5.322;2023-03-03T05:16:48;0.60;1.00
21216;DHT22;10765;50.954;5.322;2023-03-03T05:19:16;0.80;28.90
21216;DHT22;10765;50.954;5.322;2023-03-03T05:21:43;0.80;99.90
21216;DHT22;10765;50.954;5.322;2023-03-03T05:24:12;0.70;1.00
21216;DHT22;10765;50.954;5.322;2023-03-03T05:26:39;0.70;1.00
21216;DHT22;10765;50.954;5.322;2023-03-03T05:29:07;0.80;99.90
21216;DHT22;10765;50.954;5.322;2023-03-03T05:31:35;0.60;1.00
21216;DHT22;10765;50.954;5.322;2023-03-03T05:34:02;0.50;1.00
21216;DHT22;10765;50.954;5.322;2023-03-03T05:36:30;0.50;99.90
21216;DHT22;10765;50.954;5.322;2023-03-03T05:38:57;0.60;1.00
21216;DHT22;10765;50.954;5.322;2023-03-03T05:41:24;0.50;15.00
21216;DHT22;10765;50.954;5.322;2023-03-03T05:43:51;0.60;97.70
21216;DHT22;10765;50.954;5.322;2023-03-03T05:46:18;0.50;1.00
21216;DHT22;10765;50.954;5.322;2023-03-03T05:48:45;0.40;1.00
21216;DHT22;10765;50.954;5.322;2023-03-03T05:51:12;0.30;1.00
21216;DHT22;10765;50.954;5.322;2023-03-03T05:53:41;0.30;1.00
21216;DHT22;10765;50.954;5.322;2023-03-03T05:56:08;0.30;1.00
21216;DHT22;10765;50.954;5.322;2023-03-03T05:58:34;0.30;38.70
21216;DHT22;10765;50.954;5.322;2023-03-03T06:01:01;0.30;99.90
21216;DHT22;10765;50.954;5.322;2023-03-03T06:03:28;0.30;1.00
21216;DHT22;10765;50.954;5.322;2023-03-03T06:05:56;0.30;1.00
21216;DHT22;10765;50.954;5.322;2023-03-03T06:08:23;0.30;99.90
21216;DHT22;10765;50.954;5.322;2023-03-03T06:10:51;0.20;1.00
21216;DHT22;10765;50.954;5.322;2023-03-03T06:13:18;0.20;99.90
21216;DHT22;10765;50.954;5.322;2023-03-03T06:15:45;0.20;99.90
21216;DHT22;10765;50.954;5.322;2023-03-03T06:18:12;0.10;99.90
21216;DHT22;10765;50.954;5.322;2023-03-03T06:20:39;0.10;1.00
21216;DHT22;10765;50.954;5.322;2023-03-03T06:23:06;0.20;1.00
21216;DHT22;10765;50.954;5.322;2023-03-03T06:25:33;0.30;1.00
21216;DHT22;10765;50.954;5.322;2023-03-03T06:28:02;0.30;1.00
21216;DHT22;10765;50.954;5.322;2023-03-03T06:30:29;0.40;1.00
21216;DHT22;10765;50.954;5.322;2023-03-03T06:32:56;0.40;99.90
21216;DHT22;10765;50.954;5.322;2023-03-03T06:35:23;0.40;99.90
21216;DHT22;10765;50.954;5.322;2023-03-03T06:37:50;0.40;1.00
21216;DHT22;10765;50.954;5.322;2023-03-03T06:40:17;0.30;1.00
21216;DHT22;10765;50.954;5.322;2023-03-03T06:42:44;0.30;1.00
21216;DHT22;10765;50.954;5.322;2023-03-03T06:45:12;0.30;1.00
21216;DHT22;10765;50.954;5.322;2023-03-03T06:47:40;0.40;1.00
21216;DHT22;10765;50.954;5.322;2023-03-03T06:50:09;0.40;99.90
21216;DHT22;10765;50.954;5.322;2023-03-03T06:52:36;0.40;1.00
21216;DHT22;10765;50.954;5.322;2023-03-03T06:55:11;0.40;1.00
21216;DHT22;10765;50.954;5.322;2023-03-03T06:57:39;0.30;1.00
21216;DHT22;10765;50.954;5.322;2023-03-03T07:00:15;0.40;1.00
21216;DHT22;10765;50.954;5.322;2023-03-03T07:02:45;0.40;99.90
21216;DHT22;10765;50.954;5.322;2023-03-03T07:05:14;0.50;40.80
21216;DHT22;10765;50.954;5.322;2023-03-03T07:07:42;0.50;99.90
21216;DHT22;10765;50.954;5.322;2023-03-03T07:10:17;0.30;72.00
21216;DHT22;10765;50.954;5.322;2023-03-03T07:12:45;0.30;1.00
21216;DHT22;10765;50.954;5.322;2023-03-03T07:15:16;0.30;1.00
21216;DHT22;10765;50.954;5.322;2023-03-03T07:17:47;0.20;1.00
21216;DHT22;10765;50.954;5.322;2023-03-03T07:20:18;0.20;1.00
21216;DHT22;10765;50.954;5.322;2023-03-03T07:22:46;0.30;1.00
21216;DHT22;10765;50.954;5.322;2023-03-03T07:25:20;0.30;99.90
21216;DHT22;10765;50.954;5.322;2023-03-03T07:27:49;0.30;99.90
21216;DHT22;10765;50.954;5.322;2023-03-03T07:30:24;0.40;1.00
21216;DHT22;10765;50.954;5.322;2023-03-03T07:32:52;0.40;1.00
21216;DHT22;10765;50.954;5.322;2023-03-03T07:35:36;0.50;60.40
21216;DHT22;10765;50.954;5.322;2023-03-03T07:38:15;0.60;1.00
21216;DHT22;10765;50.954;5.322;2023-03-03T07:40:47;0.50;99.90
21216;DHT22;10765;50.954;5.322;2023-03-03T07:43:30;0.50;99.90
21216;DHT22;10765;50.954;5.322;2023-03-03T07:46:14;0.60;99.90
21216;DHT22;10765;50.954;5.322;2023-03-03T07:48:43;0.80;99.90
21216;DHT22;10765;50.954;5.322;2023-03-03T07:51:14;0.90;1.00
21216;DHT22;10765;50.954;5.322;2023-03-03T07:53:41;0.90;1.00
21216;DHT22;10765;50.954;5.322;2023-03-03T07:56:26;0.80;99.90
21216;DHT22;10765;50.954;5.322;2023-03-03T07:58:54;0.90;1.00
21216;DHT22;10765;50.954;5.322;2023-03-03T08:01:38;0.90;1.00
21216;DHT22;10765;50.954;5.322;2023-03-03T08:04:15;0.80;1.00
21216;DHT22;10765;50.954;5.322;2023-03-03T08:06:54;0.80;1.00
21216;DHT22;10765;50.954;5.322;2023-03-03T08:09:36;0.90;1.00
21216;DHT22;10765;50.954;5.322;2023-03-03T08:12:28;1.10;99.90
21216;DHT22;10765;50.954;5.322;2023-03-03T08:15:10;1.20;1.00
21216;DHT22;10765;50.954;5.322;2023-03-03T08:17:42;1.20;1.00
21216;DHT22;10765;50.954;5.322;2023-03-03T08:23:16;1.10;1.00
21216;DHT22;10765;50.954;5.322;2023-03-03T08:25:45;1.10;1.00
21216;DHT22;10765;50.954;5.322;2023-03-03T08:28:13;1.20;68.00
21216;DHT22;10765;50.954;5.322;2023-03-03T08:30:41;1.30;99.90
21216;DHT22;10765;50.954;5.322;2023-03-03T08:33:10;1.50;99.90
21216;DHT22;10765;50.954;5.322;2023-03-03T08:35:37;1.60;21.00
21216;DHT22;10765;50.954;5.322;2023-03-03T08:38:04;1.60;1.00
21216;DHT22;10765;50.954;5.322;2023-03-03T08:40:31;1.50;99.90
21216;DHT22;10765;50.954;5.322;2023-03-03T08:42:58;1.50;1.00
21216;DHT22;10765;50.954;5.322;2023-03-03T08:45:26;1.60;1.00
21216;DHT22;10765;50.954;5.322;2023-03-03T08:47:53;1.60;1.00
21216;DHT22;10765;50.954;5.322;2023-03-03T08:50:22;1.80;99.90
21216;DHT22;10765;50.954;5.322;2023-03-03T08:52:49;1.60;99.90
21216;DHT22;10765;50.954;5.322;2023-03-03T08:55:16;1.50;99.90
21216;DHT22;10765;50.954;5.322;2023-03-03T08:57:43;1.60;1.00
21216;DHT22;10765;50.954;5.322;2023-03-03T09:00:12;1.70;99.90
21216;DHT22;10765;50.954;5.322;2023-03-03T09:02:39;1.80;99.90
21216;DHT22;10765;50.954;5.322;2023-03-03T09:05:07;1.80;99.90
21216;DHT22;10765;50.954;5.322;2023-03-03T09:07:36;1.80;99.90
21216;DHT22;10765;50.954;5.322;2023-03-03T09:10:04;1.90;74.10
21216;DHT22;10765;50.954;5.322;2023-03-03T09:12:34;1.90;1.00
21216;DHT22;10765;50.954;5.322;2023-03-03T09:15:12;1.80;97.70
21216;DHT22;10765;50.954;5.322;2023-03-03T09:17:40;1.80;99.90
21216;DHT22;10765;50.954;5.322;2023-03-03T09:20:33;1.80;74.10
21216;DHT22;10765;50.954;5.322;2023-03-03T09:23:31;1.90;99.90
21216;DHT22;10765;50.954;5.322;2023-03-03T09:26:14;2.10;21.20
21216;DHT22;10765;50.954;5.322;2023-03-03T09:28:43;2.10;1.00
21216;DHT22;10765;50.954;5.322;2023-03-03T09:31:23;2.00;12.60
21216;DHT22;10765;50.954;5.322;2023-03-03T09:33:50;2.00;99.90
21216;DHT22;10765;50.954;5.322;2023-03-03T09:36:23;2.10;99.90
21216;DHT22;10765;50.954;5.322;2023-03-03T09:38:53;2.30;1.00
21216;DHT22;10765;50.954;5.322;2023-03-03T09:41:44;2.30;1.00
21216;DHT22;10765;50.954;5.322;2023-03-03T09:44:29;2.00;1.00
21216;DHT22;10765;50.954;5.322;2023-03-03T09:47:21;2.00;1.00
21216;DHT22;10765;50.954;5.322;2023-03-03T09:49:58;1.90;1.00
21216;DHT22;10765;50.954;5.322;2023-03-03T09:52:36;2.00;1.00
21216;DHT22;10765;50.954;5.322;2023-03-03T09:55:13;2.10;1.00
21216;DHT22;10765;50.954;5.322;2023-03-03T09:57:55;2.00;1.00
21216;DHT22;10765;50.954;5.322;2023-03-03T10:00:35;2.10;1.00
21216;DHT22;10765;50.954;5.322;2023-03-03T10:03:25;2.30;1.00
21216;DHT22;10765;50.954;5.322;2023-03-03T10:05:58;2.70;1.00
21216;DHT22;10765;50.954;5.322;2023-03-03T10:08:36;2.70;99.90
21216;DHT22;10765;50.954;5.322;2023-03-03T10:11:17;2.60;99.90
21216;DHT22;10765;50.954;5.322;2023-03-03T10:14:09;2.70;1.00
21216;DHT22;10765;50.954;5.322;2023-03-03T10:16:55;2.80;99.90
21216;DHT22;10765;50.954;5.322;2023-03-03T10:19:34;2.90;99.90
21216;DHT22;10765;50.954;5.322;2023-03-03T10:22:12;3.00;99.90
21216;DHT22;10765;50.954;5.322;2023-03-03T10:24:50;3.00;99.90
21216;DHT22;10765;50.954;5.322;2023-03-03T10:27:36;3.40;99.90
21216;DHT22;10765;50.954;5.322;2023-03-03T10:30:10;3.30;99.90
21216;DHT22;10765;50.954;5.322;2023-03-03T10:32:44;3.50;99.90
21216;DHT22;10765;50.954;5.322;2023-03-03T10:35:28;3.50;99.90
21216;DHT22;10765;50.954;5.322;2023-03-03T10:38:09;3.50;99.90
21216;DHT22;10765;50.954;5.322;2023-03-03T10:40:42;3.50;99.90
21216;DHT22;10765;50.954;5.322;2023-03-03T10:46:28;3.20;99.90
21216;DHT22;10765;50.954;5.322;2023-03-03T10:49:15;3.20;99.90
21216;DHT22;10765;50.954;5.322;2023-03-03T10:54:50;3.10;99.90
21216;DHT22;10765;50.954;5.322;2023-03-03T10:57:27;3.40;99.90
21216;DHT22;10765;50.954;5.322;2023-03-03T11:00:06;3.40;99.90
21216;DHT22;10765;50.954;5.322;2023-03-03T11:02:48;3.60;99.90
21216;DHT22;10765;50.954;5.322;2023-03-03T11:05:28;4.10;99.90
21216;DHT22;10765;50.954;5.322;2023-03-03T11:08:02;4.10;99.90
21216;DHT22;10765;50.954;5.322;2023-03-03T11:10:42;4.00;99.90
21216;DHT22;10765;50.954;5.322;2023-03-03T11:13:17;3.90;99.90
21216;DHT22;10765;50.954;5.322;2023-03-03T11:15:53;4.10;99.90
21216;DHT22;10765;50.954;5.322;2023-03-03T11:18:32;3.90;99.90
21216;DHT22;10765;50.954;5.322;2023-03-03T11:21:08;3.90;99.90
21216;DHT22;10765;50.954;5.322;2023-03-03T11:23:57;3.80;99.90
21216;DHT22;10765;50.954;5.322;2023-03-03T11:29:51;4.30;99.90
21216;DHT22;10765;50.954;5.322;2023-03-03T11:32:28;4.40;99.90
21216;DHT22;10765;50.954;5.322;2023-03-03T11:35:12;4.60;99.90
21216;DHT22;10765;50.954;5.322;2023-03-03T11:37:45;4.50;99.90
21216;DHT22;10765;50.954;5.322;2023-03-03T11:40:19;4.50;99.90
21216;DHT22;10765;50.954;5.322;2023-03-03T11:42:56;4.40;99.90
21216;DHT22;10765;50.954;5.322;2023-03-03T11:45:30;4.50;99.90
21216;DHT22;10765;50.954;5.322;2023-03-03T11:48:06;4.70;99.90
21216;DHT22;10765;50.954;5.322;2023-03-03T11:50:42;4.80;99.90
21216;DHT22;10765;50.954;5.322;2023-03-03T11:53:31;4.70;99.90
21216;DHT22;10765;50.954;5.322;2023-03-03T11:56:07;4.60;99.90
21216;DHT22;10765;50.954;5.322;2023-03-03T11:58:41;4.80;99.90
21216;DHT22;10765;50.954;5.322;2023-03-03T12:01:17;4.60;99.90
21216;DHT22;10765;50.954;5.322;2023-03-03T12:03:52;4.50;99.90
21216;DHT22;10765;50.954;5.322;2023-03-03T12:06:30;4.50;99.90
21216;DHT22;10765;50.954;5.322;2023-03-03T12:09:14;4.80;99.90
21216;DHT22;10765;50.954;5.322;2023-03-03T12:11:47;5.20;99.90
21216;DHT22;10765;50.954;5.322;2023-03-03T12:14:32;5.50;99.90
21216;DHT22;10765;50.954;5.322;2023-03-03T12:17:04;5.70;99.90
21216;DHT22;10765;50.954;5.322;2023-03-03T12:19:44;5.70;99.90
21216;DHT22;10765;50.954;5.322;2023-03-03T12:22:30;5.70;99.90
21216;DHT22;10765;50.954;5.322;2023-03-03T12:25:17;5.80;99.90
21216;DHT22;10765;50.954;5.322;2023-03-03T12:27:49;5.70;99.90
21216;DHT22;10765;50.954;5.322;2023-03-03T12:30:38;5.40;99.90
21216;DHT22;10765;50.954;5.322;2023-03-03T12:33:19;5.50;99.90
21216;DHT22;10765;50.954;5.322;2023-03-03T12:35:57;5.90;99.90
21216;DHT22;10765;50.954;5.322;2023-03-03T12:38:34;6.00;99.90
21216;DHT22;10765;50.954;5.322;2023-03-03T12:41:07;5.70;99.90
21216;DHT22;10765;50.954;5.322;2023-03-03T12:43:49;5.90;99.90
21216;DHT22;10765;50.954;5.322;2023-03-03T12:46:22;6.10;99.90
21216;DHT22;10765;50.954;5.322;2023-03-03T12:48:50;6.20;95.80
21216;DHT22;10765;50.954;5.322;2023-03-03T12:51:28;6.40;92.80
21216;DHT22;10765;50.954;5.322;2023-03-03T12:54:14;5.90;99.00
21216;DHT22;10765;50.954;5.322;2023-03-03T12:56:47;5.80;99.90
21216;DHT22;10765;50.954;5.322;2023-03-03T12:59:19;5.90;99.90
21216;DHT22;10765;50.954;5.322;2023-03-03T13:02:11;6.50;98.50
21216;DHT22;10765;50.954;5.322;2023-03-03T13:04:45;6.80;81.20
21216;DHT22;10765;50.954;5.322;2023-03-03T13:07:18;6.80;79.90
21216;DHT22;10765;50.954;5.322;2023-03-03T13:10:02;6.90;66.40
21216;DHT22;10765;50.954;5.322;2023-03-03T13:12:36;6.90;72.10
21216;DHT22;10765;50.954;5.322;2023-03-03T13:15:13;7.10;57.80
21216;DHT22;10765;50.954;5.322;2023-03-03T13:17:48;7.20;55.50
21216;DHT22;10765;50.954;5.322;2023-03-03T13:20:27;6.80;60.90
21216;DHT22;10765;50.954;5.322;2023-03-03T13:23:05;6.50;75.20
21216;DHT22;10765;50.954;5.322;2023-03-03T13:25:40;6.60;83.20
21216;DHT22;10765;50.954;5.322;2023-03-03T13:28:16;6.50;83.60
21216;DHT22;10765;50.954;5.322;2023-03-03T13:30:47;6.80;79.60
21216;DHT22;10765;50.954;5.322;2023-03-03T13:33:19;6.90;62.20
21216;DHT22;10765;50.954;5.322;2023-03-03T13:35:54;7.00;59.90
21216;DHT22;10765;50.954;5.322;2023-03-03T13:38:26;7.10;50.60
21216;DHT22;10765;50.954;5.322;2023-03-03T13:41:02;7.30;53.80
21216;DHT22;10765;50.954;5.322;2023-03-03T13:43:34;10.10;1.00
21216;DHT22;10765;50.954;5.322;2023-03-03T13:46:10;9.50;1.00
21216;DHT22;10765;50.954;5.322;2023-03-03T13:48:52;9.20;1.00
21216;DHT22;10765;50.954;5.322;2023-03-03T13:51:29;8.60;1.00
21216;DHT22;10765;50.954;5.322;2023-03-03T13:54:06;11.20;1.00
21216;DHT22;10765;50.954;5.322;2023-03-03T13:56:44;15.80;1.00
21216;DHT22;10765;50.954;5.322;2023-03-03T13:59:21;17.90;1.00
21216;DHT22;10765;50.954;5.322;2023-03-03T14:01:56;19.20;1.00
21216;DHT22;10765;50.954;5.322;2023-03-03T14:04:39;19.70;1.00
21216;DHT22;10765;50.954;5.322;2023-03-03T14:07:15;18.00;1.00
21216;DHT22;10765;50.954;5.322;2023-03-03T14:09:51;18.40;1.00
21216;DHT22;10765;50.954;5.322;2023-03-03T14:12:26;18.90;1.00
21216;DHT22;10765;50.954;5.322;2023-03-03T14:15:01;17.50;1.00
21216;DHT22;10765;50.954;5.322;2023-03-03T14:17:35;16.30;1.00
21216;DHT22;10765;50.954;5.322;2023-03-03T14:20:13;15.10;1.00
21216;DHT22;10765;50.954;5.322;2023-03-03T14:22:46;18.00;1.00
21216;DHT22;10765;50.954;5.322;2023-03-03T14:25:16;19.60;1.00
21216;DHT22;10765;50.954;5.322;2023-03-03T14:27:59;19.40;1.00
21216;DHT22;10765;50.954;5.322;2023-03-03T14:30:41;19.50;1.00
21216;DHT22;10765;50.954;5.322;2023-03-03T14:33:19;20.10;1.00
21216;DHT22;10765;50.954;5.322;2023-03-03T14:35:59;19.40;1.00
21216;DHT22;10765;50.954;5.322;2023-03-03T14:38:44;18.60;1.00
21216;DHT22;10765;50.954;5.322;2023-03-03T14:41:16;18.30;1.00
21216;DHT22;10765;50.954;5.322;2023-03-03T14:43:45;17.90;1.00
21216;DHT22;10765;50.954;5.322;2023-03-03T14:46:34;18.60;1.00
21216;DHT22;10765;50.954;5.322;2023-03-03T14:49:03;18.00;1.00
21216;DHT22;10765;50.954;5.322;2023-03-03T14:51:39;17.20;1.00
21216;DHT22;10765;50.954;5.322;2023-03-03T14:54:13;13.10;1.00
21216;DHT22;10765;50.954;5.322;2023-03-03T14:57:00;10.50;1.00
21216;DHT22;10765;50.954;5.322;2023-03-03T14:59:29;9.00;1.00
21216;DHT22;10765;50.954;5.322;2023-03-03T15:02:19;8.40;1.00
21216;DHT22;10765;50.954;5.322;2023-03-03T15:04:48;7.90;1.00
21216;DHT22;10765;50.954;5.322;2023-03-03T15:07:28;7.90;1.00
21216;DHT22;10765;50.954;5.322;2023-03-03T15:09:57;7.90;1.00
21216;DHT22;10765;50.954;5.322;2023-03-03T15:12:33;7.80;1.30
21216;DHT22;10765;50.954;5.322;2023-03-03T15:15:07;7.50;8.40
21216;DHT22;10765;50.954;5.322;2023-03-03T15:17:37;7.50;14.20
21216;DHT22;10765;50.954;5.322;2023-03-03T15:23:16;7.20;22.40
21216;DHT22;10765;50.954;5.322;2023-03-03T15:25:53;7.20;26.60
21216;DHT22;10765;50.954;5.322;2023-03-03T15:28:35;7.20;29.60
21216;DHT22;10765;50.954;5.322;2023-03-03T15:31:10;7.30;26.60
21216;DHT22;10765;50.954;5.322;2023-03-03T15:33:45;7.50;23.90
21216;DHT22;10765;50.954;5.322;2023-03-03T15:36:17;7.60;20.60
21216;DHT22;10765;50.954;5.322;2023-03-03T15:38:57;7.50;22.80
21216;DHT22;10765;50.954;5.322;2023-03-03T15:41:37;7.40;25.90
21216;DHT22;10765;50.954;5.322;2023-03-03T15:44:20;7.40;26.70
21216;DHT22;10765;50.954;5.322;2023-03-03T15:47:02;7.20;30.00
21216;DHT22;10765;50.954;5.322;2023-03-03T15:50:00;7.30;31.70
21216;DHT22;10765;50.954;5.322;2023-03-03T15:52:44;7.20;34.70
21216;DHT22;10765;50.954;5.322;2023-03-03T15:55:31;7.00;40.50
21216;DHT22;10765;50.954;5.322;2023-03-03T15:58:13;6.80;49.30
21216;DHT22;10765;50.954;5.322;2023-03-03T16:00:56;6.90;49.30
21216;DHT22;10765;50.954;5.322;2023-03-03T16:03:32;7.00;48.40
21216;DHT22;10765;50.954;5.322;2023-03-03T16:06:05;7.00;48.80
21216;DHT22;10765;50.954;5.322;2023-03-03T16:08:43;7.00;49.10
21216;DHT22;10765;50.954;5.322;2023-03-03T16:11:17;7.00;52.70
21216;DHT22;10765;50.954;5.322;2023-03-03T16:14:00;6.90;54.60
21216;DHT22;10765;50.954;5.322;2023-03-03T16:16:39;6.80;61.20
21216;DHT22;10765;50.954;5.322;2023-03-03T16:19:19;6.70;69.30
21216;DHT22;10765;50.954;5.322;2023-03-03T16:22:09;6.60;73.90
21216;DHT22;10765;50.954;5.322;2023-03-03T16:24:50;6.50;83.40
21216;DHT22;10765;50.954;5.322;2023-03-03T16:27:23;6.50;91.60
21216;DHT22;10765;50.954;5.322;2023-03-03T16:30:04;6.50;91.90
21216;DHT22;10765;50.954;5.322;2023-03-03T16:32:38;6.50;93.30
21216;DHT22;10765;50.954;5.322;2023-03-03T16:35:18;6.40;96.60
21216;DHT22;10765;50.954;5.322;2023-03-03T16:37:55;6.40;98.80
21216;DHT22;10765;50.954;5.322;2023-03-03T16:40:25;6.40;99.90
21216;DHT22;10765;50.954;5.322;2023-03-03T16:42:59;6.50;99.90
21216;DHT22;10765;50.954;5.322;2023-03-03T16:45:33;6.40;99.90